Time;durP1;ratioP1;P1;durP2;ratioP2;P2;SDS_P1;SDS_P2;PMS_P1;PMS_P2;Temp;Humidity;BMP_temperature;BMP_pressure;BME280_temperature;BME280_humidity;BME280_pressure;Samples;Min_cycle;Max_cycle;Signal;HPM_P1;HPM_P2
2022/05/16 00:00:30;;;;;;;4.63;2.23;;;6.30;99.90;;;;;;8322997;28;20190;-79
2022/05/16 00:04:31;;;;;;;2.40;1.87;;;6.30;99.90;;;;;;8328797;28;20198;-79
2022/05/16 00:08:32;;;;;;;2.43;1.87;;;6.20;1.00;;;;;;8335422;28;20192;-78
2022/05/16 00:12:34;;;;;;;3.37;2.00;;;6.10;1.00;;;;;;8335331;28;20224;-78
2022/05/16 00:16:34;;;;;;;2.27;1.77;;;6.10;19.90;;;;;;8330448;28;20226;-78
2022/05/16 00:20:35;;;;;;;3.70;2.27;;;6.10;99.90;;;;;;8332413;28;20181;-79
2022/05/16 00:24:42;;;;;;;2.73;2.07;;;6.10;99.90;;;;;;8326844;28;20236;-80
2022/05/16 00:28:43;;;;;;;3.30;2.07;;;6.10;1.00;;;;;;8324697;28;20392;-78
2022/05/16 00:32:48;;;;;;;3.47;2.43;;;6.00;1.00;;;;;;8334151;28;20197;-79
2022/05/16 00:36:48;;;;;;;2.83;1.93;;;6.00;1.00;;;;;;8350360;28;20184;-79
2022/05/16 00:40:49;;;;;;;4.10;2.07;;;5.90;79.00;;;;;;8331260;28;20301;-78
2022/05/16 00:44:50;;;;;;;4.30;2.03;;;5.90;99.90;;;;;;8322323;28;20201;-79
2022/05/16 00:48:52;;;;;;;2.13;1.57;;;5.80;1.00;;;;;;8326509;28;20187;-78
2022/05/16 00:52:53;;;;;;;3.97;2.00;;;5.70;1.00;;;;;;8316208;28;20188;-79
2022/05/16 00:57:03;;;;;;;3.27;2.33;;;5.70;39.60;;;;;;8331001;28;20212;-79
2022/05/16 01:04:47;;;;;;;3.80;1.90;;;5.60;99.90;;;;;;8320464;28;20196;-79
2022/05/16 01:05:26;;;;;;;3.40;2.27;;;5.60;1.00;;;;;;8343563;28;20256;-79
2022/05/16 01:09:27;;;;;;;2.97;2.17;;;5.50;99.90;;;;;;8348653;28;20188;-79
2022/05/16 01:13:30;;;;;;;2.90;2.00;;;5.50;1.00;;;;;;8339321;28;20213;-79
2022/05/16 01:17:31;;;;;;;2.40;1.90;;;5.50;99.90;;;;;;8328577;28;20243;-79
2022/05/16 01:21:39;;;;;;;4.03;1.67;;;5.40;1.00;;;;;;8322026;28;20225;-79
2022/05/16 01:25:40;;;;;;;2.67;2.00;;;5.40;1.00;;;;;;8343974;28;20189;-78
2022/05/16 01:29:42;;;;;;;2.57;2.20;;;5.40;99.90;;;;;;8327284;28;20214;-79
2022/05/16 01:33:43;;;;;;;4.50;2.17;;;5.30;99.90;;;;;;8322752;28;20226;-79
2022/05/16 01:42:04;;;;;;;4.40;2.37;;;5.20;99.90;;;;;;8347484;28;20284;-79
2022/05/16 01:46:06;;;;;;;3.00;2.00;;;5.20;34.10;;;;;;8318519;28;20198;-78
2022/05/16 01:50:07;;;;;;;4.37;2.43;;;5.20;99.90;;;;;;8326784;28;20288;-78
2022/05/16 01:54:08;;;;;;;2.53;2.13;;;5.20;1.00;;;;;;8338969;28;20249;-79
2022/05/16 01:58:10;;;;;;;2.50;2.10;;;5.20;99.90;;;;;;8328491;28;20183;-77
2022/05/16 02:02:10;;;;;;;4.37;2.20;;;5.10;99.90;;;;;;8327470;28;20294;-78
2022/05/16 02:06:11;;;;;;;3.63;1.77;;;5.00;99.90;;;;;;8331983;28;20185;-78
2022/05/16 02:10:16;;;;;;;2.47;1.97;;;5.00;12.20;;;;;;8322684;28;20187;-79
2022/05/16 02:14:17;;;;;;;3.40;2.33;;;5.00;99.90;;;;;;8327106;28;20282;-78
2022/05/16 02:18:18;;;;;;;2.77;2.07;;;5.00;99.90;;;;;;8327717;28;20336;-78
2022/05/16 02:26:46;;;;;;;2.30;1.70;;;4.90;99.90;;;;;;8342155;28;20228;-79
2022/05/16 02:30:48;;;;;;;2.07;1.67;;;4.80;99.90;;;;;;8337229;28;20183;-79
2022/05/16 02:34:50;;;;;;;4.30;2.40;;;4.70;99.90;;;;;;8336938;28;20223;-78
2022/05/16 02:38:51;;;;;;;3.47;2.10;;;4.70;99.90;;;;;;8309037;28;20458;-79
2022/05/16 02:42:52;;;;;;;3.60;1.70;;;4.60;99.90;;;;;;8329237;28;20288;-79
2022/05/16 02:46:53;;;;;;;4.07;2.20;;;4.60;99.90;;;;;;8326017;28;20182;-78
2022/05/16 02:50:54;;;;;;;1.90;1.70;;;4.60;99.90;;;;;;8323260;28;20192;-79
2022/05/16 02:54:55;;;;;;;2.30;1.90;;;4.60;99.90;;;;;;8324957;28;20278;-78
2022/05/16 02:58:56;;;;;;;2.80;1.93;;;4.50;99.90;;;;;;8334863;28;20177;-79
2022/05/16 03:02:57;;;;;;;3.67;1.87;;;4.50;99.90;;;;;;8318454;28;20195;-79
2022/05/16 03:07:01;;;;;;;4.50;2.20;;;4.50;99.90;;;;;;8327890;28;20264;-79
2022/05/16 03:11:03;;;;;;;2.13;1.90;;;4.60;99.90;;;;;;8325121;28;20179;-79
2022/05/16 03:15:04;;;;;;;3.87;2.10;;;4.60;99.90;;;;;;8306575;28;20211;-79
2022/05/16 03:19:06;;;;;;;3.23;2.13;;;4.70;99.90;;;;;;8322828;28;20191;-78
2022/05/16 03:23:07;;;;;;;3.93;1.90;;;4.70;99.90;;;;;;8346767;28;20203;-77
2022/05/16 03:27:09;;;;;;;4.57;2.67;;;4.90;99.90;;;;;;8333001;28;20200;-75
2022/05/16 03:31:10;;;;;;;4.13;2.30;;;5.00;99.90;;;;;;8335603;28;20186;-81
2022/05/16 03:35:12;;;;;;;3.27;2.10;;;5.20;99.90;;;;;;8324749;28;20232;-78
2022/05/16 03:43:37;;;;;;;5.03;3.47;;;5.40;99.90;;;;;;8350343;28;20207;-79
2022/05/16 03:47:37;;;;;;;4.53;2.67;;;5.60;99.90;;;;;;8341476;28;20195;-77
2022/05/16 03:51:39;;;;;;;4.40;3.20;;;6.00;99.90;;;;;;8343814;28;20234;-80
2022/05/16 03:55:40;;;;;;;3.87;2.50;;;6.90;99.90;;;;;;8328369;28;20216;-76
2022/05/16 03:59:44;;;;;;;6.23;2.90;;;8.10;1.00;;;;;;8345928;28;20496;-76
2022/05/16 04:03:45;;;;;;;5.67;2.90;;;9.40;1.00;;;;;;8332156;28;20209;-79
2022/05/16 04:07:47;;;;;;;7.53;2.80;;;10.40;12.80;;;;;;8325851;28;20280;-75
2022/05/16 04:11:47;;;;;;;3.87;2.70;;;11.30;1.00;;;;;;8345741;28;20213;-75
2022/05/16 04:15:49;;;;;;;5.63;2.20;;;12.20;1.00;;;;;;8318751;28;20221;-76
2022/05/16 04:19:49;;;;;;;5.53;2.43;;;12.90;99.90;;;;;;8311298;28;20218;-76
2022/05/16 04:23:50;;;;;;;5.57;2.70;;;13.50;54.70;;;;;;8331317;28;20189;-77
2022/05/16 04:27:51;;;;;;;5.17;3.07;;;13.60;1.00;;;;;;8334007;28;20209;-76
2022/05/16 04:31:52;;;;;;;4.33;3.10;;;13.70;1.00;;;;;;8330982;28;20190;-75
2022/05/16 04:35:53;;;;;;;8.03;4.43;;;14.20;1.00;;;;;;8334444;28;20209;-77
2022/05/16 04:39:54;;;;;;;6.10;4.07;;;14.80;99.90;;;;;;8351773;28;20202;-80
2022/05/16 04:43:55;;;;;;;8.07;5.50;;;15.40;99.90;;;;;;8327613;28;20213;-80
2022/05/16 04:47:59;;;;;;;11.23;6.07;;;15.70;99.90;;;;;;8328504;28;20258;-81
2022/05/16 04:52:00;;;;;;;10.53;5.07;;;15.80;99.90;;;;;;8322692;28;20280;-79
2022/05/16 04:56:01;;;;;;;8.07;4.80;;;15.70;99.90;;;;;;8325937;28;20217;-76
2022/05/16 05:00:04;;;;;;;5.77;3.93;;;15.90;99.90;;;;;;8333944;28;20462;-76
2022/05/16 05:04:05;;;;;;;6.50;3.80;;;15.60;99.90;;;;;;8334710;28;20186;-77
2022/05/16 05:08:06;;;;;;;8.00;3.67;;;14.80;99.90;;;;;;8328828;28;20193;-75
2022/05/16 05:16:28;;;;;;;7.37;4.17;;;13.50;1.00;;;;;;8337838;28;20264;-77
2022/05/16 05:20:32;;;;;;;9.30;4.50;;;13.20;91.90;;;;;;8323998;28;20175;-76
2022/05/16 05:24:33;;;;;;;6.40;4.00;;;13.20;99.90;;;;;;8334840;28;20182;-76
2022/05/16 05:28:35;;;;;;;4.50;2.60;;;13.20;99.90;;;;;;8328314;28;20613;-78
2022/05/16 05:32:36;;;;;;;5.83;2.90;;;13.40;99.90;;;;;;8335064;28;20216;-77
2022/05/16 05:36:38;;;;;;;5.63;2.43;;;13.60;26.10;;;;;;8345551;28;20297;-76
2022/05/16 05:40:40;;;;;;;7.27;2.60;;;13.80;9.30;;;;;;8336097;28;20206;-80
2022/05/16 05:44:40;;;;;;;5.77;2.30;;;14.10;1.00;;;;;;8332133;28;20221;-75
2022/05/16 05:48:42;;;;;;;4.87;2.30;;;14.40;1.00;;;;;;8331281;28;20190;-79
2022/05/16 05:52:42;;;;;;;6.97;2.67;;;14.50;1.00;;;;;;8317466;28;20276;-77
2022/05/16 05:56:43;;;;;;;4.40;1.90;;;14.70;1.00;;;;;;8325418;28;20218;-80
2022/05/16 06:00:45;;;;;;;5.57;2.00;;;14.90;99.90;;;;;;8324294;28;20247;-75
2022/05/16 06:04:46;;;;;;;4.93;2.10;;;15.10;99.90;;;;;;8325885;28;20194;-76
2022/05/16 06:08:47;;;;;;;2.67;1.70;;;15.30;99.90;;;;;;8321090;28;20273;-79
2022/05/16 06:12:48;;;;;;;4.30;1.80;;;15.40;99.90;;;;;;8333915;28;20200;-77
2022/05/16 06:16:49;;;;;;;3.67;1.97;;;15.50;99.90;;;;;;8323102;28;20214;-79
2022/05/16 06:20:49;;;;;;;3.90;1.80;;;15.60;99.90;;;;;;8318137;28;20193;-76
2022/05/16 06:29:10;;;;;;;3.53;1.93;;;16.00;99.90;;;;;;8342016;28;20213;-77
2022/05/16 06:33:12;;;;;;;4.67;2.07;;;16.30;99.90;;;;;;8325949;28;20185;-79
2022/05/16 06:37:12;;;;;;;4.13;1.70;;;16.40;99.90;;;;;;8325466;28;20265;-75
2022/05/16 06:41:13;;;;;;;9.07;1.80;;;16.50;99.90;;;;;;8329543;28;20205;-78
2022/05/16 06:45:15;;;;;;;6.93;1.90;;;16.60;99.90;;;;;;8322749;28;20192;-79
2022/05/16 06:49:16;;;;;;;6.50;1.97;;;16.70;99.90;;;;;;8325772;28;20190;-75
2022/05/16 06:53:29;;;;;;;4.97;1.47;;;16.90;99.90;;;;;;8317436;28;20327;-75
2022/05/16 06:57:30;;;;;;;6.20;1.70;;;17.00;99.90;;;;;;8329681;28;20264;-79
2022/05/16 07:01:31;;;;;;;6.57;2.00;;;17.10;99.90;;;;;;8331384;28;20192;-77
2022/05/16 07:05:33;;;;;;;3.33;1.73;;;17.30;99.90;;;;;;8327701;28;20259;-77
2022/05/16 07:09:41;;;;;;;4.40;1.97;;;17.50;95.50;;;;;;8333663;28;20177;-76
2022/05/16 07:13:42;;;;;;;6.07;1.70;;;17.60;70.50;;;;;;8346475;28;20234;-77
2022/05/16 07:17:43;;;;;;;3.70;1.87;;;17.80;71.90;;;;;;8348071;28;20186;-79
2022/05/16 07:21:44;;;;;;;4.10;1.67;;;18.00;58.20;;;;;;8325365;28;20243;-77
2022/05/16 07:30:05;;;;;;;4.23;2.13;;;18.10;44.10;;;;;;8348424;28;20280;-76
2022/05/16 07:34:06;;;;;;;6.23;2.20;;;18.30;99.90;;;;;;8320002;28;20221;-79
2022/05/16 07:38:07;;;;;;;4.17;2.00;;;18.50;42.50;;;;;;8331354;28;20174;-75
2022/05/16 07:42:10;;;;;;;5.70;1.73;;;18.70;28.10;;;;;;8345776;28;20205;-79
2022/05/16 07:46:11;;;;;;;2.67;1.60;;;18.90;59.90;;;;;;8344392;28;20190;-77
2022/05/16 07:50:13;;;;;;;5.03;1.97;;;19.10;27.30;;;;;;8318116;28;20336;-78
2022/05/16 07:54:14;;;;;;;4.67;2.10;;;19.30;19.00;;;;;;8324124;28;20293;-79
2022/05/16 07:58:15;;;;;;;5.97;1.67;;;19.50;7.90;;;;;;8337779;28;20189;-79
2022/05/16 08:02:16;;;;;;;3.47;1.40;;;19.70;19.00;;;;;;8324903;28;20189;-78
2022/05/16 08:06:17;;;;;;;5.50;1.40;;;20.00;1.00;;;;;;8319570;28;20277;-79
2022/05/16 08:10:30;;;;;;;3.80;1.50;;;20.10;1.00;;;;;;8329591;28;20190;-78
2022/05/16 08:14:31;;;;;;;3.93;1.43;;;20.10;1.00;;;;;;8343461;28;20205;-80
2022/05/16 08:18:32;;;;;;;2.97;1.40;;;20.20;1.00;;;;;;8334767;28;20182;-77
2022/05/16 08:22:34;;;;;;;6.00;1.60;;;20.20;1.00;;;;;;8326654;28;20189;-77
2022/05/16 08:26:36;;;;;;;6.70;1.63;;;20.40;1.00;;;;;;8334150;28;20198;-79
2022/05/16 08:30:37;;;;;;;5.07;1.93;;;20.50;1.00;;;;;;8333820;28;20186;-76
2022/05/16 08:34:38;;;;;;;4.07;1.50;;;20.70;1.00;;;;;;8324104;28;20245;-78
2022/05/16 08:43:26;;;;;;;1.60;1.13;;;21.30;1.00;;;;;;8349192;28;20210;-76
2022/05/16 08:47:48;;;;;;;3.53;1.70;;;21.50;1.00;;;;;;8329704;28;20190;-77
2022/05/16 08:51:57;;;;;;;3.93;1.00;;;21.60;1.00;;;;;;8334571;28;20268;-76
2022/05/16 08:56:05;;;;;;;2.93;1.00;;;21.80;1.00;;;;;;8326663;28;20224;-78
2022/05/16 09:00:30;;;;;;;4.20;0.90;;;21.90;1.00;;;;;;8353261;28;20212;-75
2022/05/16 09:05:01;;;;;;;4.17;1.10;;;22.00;1.00;;;;;;8328681;28;20202;-79
2022/05/16 09:09:16;;;;;;;1.47;0.80;;;22.10;1.00;;;;;;8337601;28;20182;-75
2022/05/16 09:13:35;;;;;;;3.10;1.37;;;22.30;1.00;;;;;;8329462;28;20190;-76
2022/05/16 09:18:00;;;;;;;1.83;1.00;;;22.20;1.00;;;;;;8320772;28;20183;-77
2022/05/16 09:22:10;;;;;;;2.10;1.20;;;22.40;1.00;;;;;;8321889;28;20214;-76
2022/05/16 09:26:36;;;;;;;2.47;1.00;;;22.60;1.00;;;;;;8341630;28;20178;-80
2022/05/16 09:30:39;;;;;;;3.83;1.13;;;22.70;1.00;;;;;;8336167;28;20187;-77
2022/05/16 09:34:40;;;;;;;2.03;0.90;;;22.60;1.00;;;;;;8334265;28;20296;-76
2022/05/16 09:38:44;;;;;;;2.57;1.10;;;22.80;1.00;;;;;;8335923;28;20202;-76
2022/05/16 09:42:45;;;;;;;3.20;0.90;;;22.80;1.00;;;;;;8328160;28;20277;-79
2022/05/16 09:46:47;;;;;;;3.30;1.00;;;22.80;1.00;;;;;;8329847;28;20244;-76
2022/05/16 09:51:07;;;;;;;2.07;1.00;;;22.90;1.00;;;;;;8320575;28;20209;-77
2022/05/16 09:55:12;;;;;;;1.40;0.80;;;22.90;1.00;;;;;;8330661;28;20395;-76
2022/05/16 09:59:14;;;;;;;2.10;0.77;;;23.00;1.00;;;;;;8333929;28;20182;-76
2022/05/16 10:03:32;;;;;;;2.80;0.80;;;23.10;1.00;;;;;;8323633;28;20182;-76
2022/05/16 10:07:44;;;;;;;2.53;0.80;;;23.00;1.00;;;;;;8326403;28;20175;-76
2022/05/16 10:11:50;;;;;;;3.90;1.00;;;23.00;1.00;;;;;;8329426;28;20210;-76
2022/05/16 10:15:54;;;;;;;3.60;0.70;;;23.00;1.00;;;;;;8341569;28;20198;-75
2022/05/16 10:19:59;;;;;;;4.90;0.80;;;22.90;1.00;;;;;;8344490;28;20205;-78
2022/05/16 10:24:02;;;;;;;1.97;0.60;;;23.10;1.00;;;;;;8332594;28;20187;-77
2022/05/16 10:28:08;;;;;;;2.40;0.80;;;23.30;1.00;;;;;;8336699;28;20223;-78
2022/05/16 10:36:36;;;;;;;2.37;1.07;;;23.40;1.00;;;;;;8341475;28;20232;-76
2022/05/16 10:40:42;;;;;;;1.20;0.73;;;23.60;1.00;;;;;;8322275;28;20201;-80
2022/05/16 10:45:12;;;;;;;2.17;0.63;;;23.70;1.00;;;;;;8337900;28;20189;-77
2022/05/16 10:49:19;;;;;;;1.60;0.73;;;23.70;1.00;;;;;;8279299;28;20174;-76
2022/05/16 10:53:26;;;;;;;2.17;0.73;;;23.80;1.00;;;;;;8312741;28;20186;-80
2022/05/16 10:57:48;;;;;;;2.60;1.00;;;23.90;1.00;;;;;;8330376;28;20198;-80
2022/05/16 11:02:24;;;;;;;2.33;0.90;;;24.00;1.00;;;;;;8332537;28;20239;-77
2022/05/16 11:06:30;;;;;;;2.17;0.70;;;24.10;1.00;;;;;;8324396;28;20190;-76
2022/05/16 11:10:47;;;;;;;2.93;0.90;;;24.10;1.00;;;;;;8319345;28;20236;-80
2022/05/16 11:14:51;;;;;;;2.73;1.20;;;24.10;1.00;;;;;;8328332;28;20210;-78
2022/05/16 11:19:16;;;;;;;2.53;0.87;;;24.20;1.00;;;;;;8324494;28;20171;-79
2022/05/16 11:23:30;;;;;;;3.07;1.07;;;24.20;1.00;;;;;;8339560;28;20188;-76
2022/05/16 11:27:49;;;;;;;2.03;0.90;;;24.20;1.00;;;;;;8326932;28;20194;-77
2022/05/16 11:31:51;;;;;;;1.73;0.90;;;24.20;1.00;;;;;;8321838;28;20178;-80
2022/05/16 11:35:58;;;;;;;1.90;0.83;;;24.10;1.00;;;;;;8332516;28;20207;-76
2022/05/16 11:40:05;;;;;;;3.23;1.30;;;24.20;1.00;;;;;;8326449;28;20204;-76
2022/05/16 11:44:18;;;;;;;2.20;1.07;;;24.30;1.00;;;;;;8320960;28;20198;-76
2022/05/16 11:48:40;;;;;;;1.83;0.80;;;24.60;1.00;;;;;;8323897;28;20205;-77
2022/05/16 11:53:15;;;;;;;1.40;1.00;;;24.80;1.00;;;;;;8325962;28;20186;-77
2022/05/16 12:01:44;;;;;;;9.63;1.83;;;25.10;1.00;;;;;;8344605;28;20197;-79
2022/05/16 12:06:11;;;;;;;2.20;0.90;;;25.10;1.00;;;;;;8323438;28;20214;-76
2022/05/16 12:10:15;;;;;;;3.40;1.40;;;25.20;1.00;;;;;;8338137;28;20198;-77
2022/05/16 12:14:37;;;;;;;4.53;1.60;;;25.00;1.00;;;;;;8335120;28;20221;-80
2022/05/16 12:18:40;;;;;;;2.30;1.30;;;24.80;1.00;;;;;;8326007;28;20213;-77
2022/05/16 12:22:42;;;;;;;3.23;1.23;;;24.90;1.00;;;;;;8344050;28;20171;-79
2022/05/16 12:26:49;;;;;;;4.97;1.23;;;25.00;1.00;;;;;;8338904;28;20205;-79
2022/05/16 12:30:54;;;;;;;2.97;1.20;;;25.00;1.00;;;;;;8325983;28;21460;-77
2022/05/16 12:35:06;;;;;;;4.33;1.27;;;25.10;1.00;;;;;;8346313;28;20213;-80
2022/05/16 12:39:34;;;;;;;4.53;1.30;;;24.90;1.00;;;;;;8346730;28;20205;-78
2022/05/16 12:44:01;;;;;;;4.70;1.20;;;25.10;1.00;;;;;;8336214;28;20187;-77
2022/05/16 12:48:39;;;;;;;3.10;1.20;;;25.10;1.00;;;;;;8332937;28;20320;-77
2022/05/16 12:52:55;;;;;;;3.80;1.20;;;25.20;1.00;;;;;;8339757;28;20325;-80
2022/05/16 12:57:01;;;;;;;2.57;1.30;;;25.30;1.00;;;;;;8331245;28;20201;-80
2022/05/16 13:01:24;;;;;;;7.70;1.97;;;25.20;1.00;;;;;;8338873;28;20178;-80
2022/05/16 13:05:57;;;;;;;2.90;1.50;;;25.20;1.00;;;;;;8334340;28;20186;-81
2022/05/16 13:10:29;;;;;;;2.33;1.00;;;25.20;1.00;;;;;;8323793;28;20193;-76
2022/05/16 13:14:43;;;;;;;3.50;1.40;;;25.30;1.00;;;;;;8317629;28;20217;-77
2022/05/16 13:18:51;;;;;;;3.47;1.30;;;25.40;1.00;;;;;;8328087;28;20182;-78
2022/05/16 13:22:54;;;;;;;2.37;0.90;;;25.50;1.00;;;;;;8331065;28;20242;-78
2022/05/16 13:31:33;;;;;;;4.40;1.10;;;25.50;1.00;;;;;;8347586;28;20244;-79
2022/05/16 13:35:37;;;;;;;1.97;1.10;;;25.50;1.00;;;;;;8339763;28;20214;-76
2022/05/16 13:39:44;;;;;;;3.13;1.30;;;25.60;1.00;;;;;;8335459;28;20198;-78
2022/05/16 13:43:44;;;;;;;4.13;1.37;;;25.70;1.00;;;;;;8303692;28;20202;-81
2022/05/16 13:47:45;;;;;;;3.55;1.17;;;25.60;1.00;;;;;;8336627;28;20193;-74
2022/05/16 13:51:49;;;;;;;3.93;1.40;;;25.20;1.00;;;;;;8329434;28;20194;-77
2022/05/16 13:55:51;;;;;;;3.43;1.23;;;24.60;1.00;;;;;;8329832;28;20279;-81
2022/05/16 14:00:13;;;;;;;1.60;1.20;;;24.50;1.00;;;;;;8328003;28;20186;-77
2022/05/16 14:04:15;;;;;;;4.23;1.13;;;24.60;1.00;;;;;;8320853;28;20182;-76
2022/05/16 14:08:34;;;;;;;4.07;1.20;;;24.80;1.00;;;;;;8317424;28;20194;-78
2022/05/16 14:12:39;;;;;;;3.70;1.40;;;25.00;1.00;;;;;;8328574;28;20183;-80
2022/05/16 14:16:43;;;;;;;6.33;1.60;;;25.20;1.00;;;;;;8326605;28;20225;-80
2022/05/16 14:20:55;;;;;;;4.47;1.53;;;25.30;1.00;;;;;;8331526;28;20195;-81
2022/05/16 14:25:08;;;;;;;2.77;1.30;;;25.30;1.00;;;;;;8327331;28;20214;-77
2022/05/16 14:29:31;;;;;;;6.50;1.40;;;25.50;1.00;;;;;;8323126;28;20194;-76
2022/05/16 14:33:34;;;;;;;3.23;1.43;;;25.60;1.00;;;;;;8319743;28;20209;-78
2022/05/16 14:37:37;;;;;;;3.53;1.23;;;25.70;1.00;;;;;;8328111;28;20182;-78
2022/05/16 14:42:09;;;;;;;2.93;1.33;;;25.50;1.00;;;;;;8329491;28;20203;-81
2022/05/16 14:50:39;;;;;;;3.60;1.17;;;25.70;1.00;;;;;;8338281;28;20192;-79
2022/05/16 14:55:11;;;;;;;1.67;0.95;;;25.90;1.00;;;;;;8323378;28;20261;-80
2022/05/16 14:59:12;;;;;;;2.78;1.20;;;25.90;1.00;;;;;;8322885;28;20182;-78
2022/05/16 15:07:41;;;;;;;4.30;1.20;;;25.80;1.00;;;;;;8337532;28;20189;-81
2022/05/16 15:11:52;;;;;;;4.50;1.60;;;25.70;1.00;;;;;;8345201;28;20178;-78
2022/05/16 15:15:54;;;;;;;2.60;1.30;;;25.60;1.00;;;;;;8332223;28;20215;-78
2022/05/16 15:19:55;;;;;;;3.70;1.70;;;25.60;1.00;;;;;;8324610;28;20186;-78
2022/05/16 15:23:56;;;;;;;4.97;1.60;;;25.70;1.00;;;;;;8330683;28;20185;-78
2022/05/16 15:27:58;;;;;;;1.83;1.07;;;25.80;1.00;;;;;;8338589;28;20212;-78
2022/05/16 15:31:59;;;;;;;2.15;1.60;;;25.70;1.00;;;;;;8333556;28;20182;-82
2022/05/16 15:36:02;;;;;;;3.30;1.38;;;25.80;1.00;;;;;;8334687;28;20206;-79
2022/05/16 15:40:03;;;;;;;3.10;1.05;;;26.00;1.00;;;;;;8336380;28;20202;-81
2022/05/16 15:44:04;;;;;;;2.17;1.20;;;26.30;1.00;;;;;;8326904;28;20181;-77
2022/05/16 15:48:08;;;;;;;6.30;1.50;;;26.60;1.00;;;;;;8335969;28;20214;-77
2022/05/16 15:52:09;;;;;;;3.17;1.63;;;26.80;1.00;;;;;;8327848;28;20217;-78
2022/05/16 15:56:11;;;;;;;6.50;2.30;;;26.90;1.00;;;;;;8334890;28;20210;-79
2022/05/16 16:00:16;;;;;;;4.38;1.58;;;26.90;1.00;;;;;;8334955;28;20193;-77
2022/05/16 16:08:39;;;;;;;3.80;1.40;;;26.70;1.00;;;;;;8352802;28;20190;-78
2022/05/16 16:12:41;;;;;;;5.03;1.30;;;26.60;1.00;;;;;;8333137;28;20198;-82
2022/05/16 16:16:45;;;;;;;3.13;1.88;;;26.60;1.00;;;;;;8333872;28;20225;-82
2022/05/16 16:20:47;;;;;;;5.22;2.05;;;26.50;1.00;;;;;;8330917;28;20187;-81
2022/05/16 16:24:48;;;;;;;4.30;1.25;;;26.30;1.00;;;;;;8327343;28;20221;-79
2022/05/16 16:28:49;;;;;;;6.15;1.67;;;26.10;1.00;;;;;;8328697;28;20202;-78
2022/05/16 16:32:50;;;;;;;2.92;1.42;;;25.90;1.00;;;;;;8333584;28;20278;-77
2022/05/16 16:36:52;;;;;;;3.20;1.57;;;25.70;1.00;;;;;;8330633;28;20305;-77
2022/05/16 16:40:58;;;;;;;5.33;1.30;;;25.50;1.00;;;;;;8332866;28;20197;-81
2022/05/16 16:44:59;;;;;;;5.47;1.47;;;25.30;1.00;;;;;;8339751;28;20210;-81
2022/05/16 16:49:01;;;;;;;7.10;2.00;;;25.10;1.00;;;;;;8323550;28;20189;-79
2022/05/16 16:57:33;;;;;;;5.57;1.90;;;24.90;1.00;;;;;;8339454;28;20213;-81
2022/05/16 17:01:36;;;;;;;5.27;1.73;;;24.80;1.00;;;;;;8325802;28;20210;-79
2022/05/16 17:05:38;;;;;;;4.73;1.60;;;24.60;1.00;;;;;;8323895;28;20243;-77
2022/05/16 17:09:39;;;;;;;4.23;1.63;;;24.50;1.00;;;;;;8337023;28;20182;-79
2022/05/16 17:13:40;;;;;;;4.20;1.50;;;24.40;1.00;;;;;;8337915;28;20225;-77
2022/05/16 17:17:44;;;;;;;4.07;1.50;;;24.30;1.00;;;;;;8334775;28;20217;-81
2022/05/16 17:21:45;;;;;;;3.63;1.60;;;24.20;1.00;;;;;;8332087;28;20474;-77
2022/05/16 17:25:48;;;;;;;5.00;1.77;;;23.90;1.00;;;;;;8334469;28;20284;-77
2022/05/16 17:29:49;;;;;;;6.93;1.70;;;23.80;1.00;;;;;;8313854;28;20209;-77
2022/05/16 17:33:51;;;;;;;5.33;1.83;;;23.60;1.00;;;;;;8323521;28;20209;-81
2022/05/16 17:37:52;;;;;;;7.17;2.77;;;23.40;1.00;;;;;;8332230;28;20213;-77
2022/05/16 17:41:53;;;;;;;9.83;4.97;;;23.20;1.00;;;;;;8344287;28;20292;-77
2022/05/16 17:45:53;;;;;;;10.33;4.70;;;23.00;1.00;;;;;;8323078;28;20186;-81
2022/05/16 17:49:54;;;;;;;12.50;5.40;;;22.80;1.00;;;;;;8324774;28;20255;-78
2022/05/16 17:54:10;;;;;;;6.50;3.20;;;22.60;1.00;;;;;;8332087;28;20209;-79
2022/05/16 17:58:11;;;;;;;8.53;4.03;;;22.40;1.00;;;;;;8345425;28;20187;-77
2022/05/16 18:02:35;;;;;;;3.93;2.47;;;22.10;1.00;;;;;;8324500;28;20208;-80
2022/05/16 18:06:39;;;;;;;6.90;3.03;;;21.90;1.00;;;;;;8323648;28;20190;-77
2022/05/16 18:15:01;;;;;;;12.50;6.33;;;21.60;1.00;;;;;;8340250;28;20255;-78
2022/05/16 18:19:02;;;;;;;13.20;6.50;;;21.50;1.00;;;;;;8327445;28;20276;-82
2022/05/16 18:23:03;;;;;;;11.33;5.73;;;21.20;1.00;;;;;;8326391;28;20236;-76
2022/05/16 18:27:05;;;;;;;3.27;2.43;;;21.10;1.00;;;;;;8326646;28;20795;-81
2022/05/16 18:31:10;;;;;;;3.60;2.10;;;20.90;1.00;;;;;;8323906;28;20185;-78
2022/05/16 18:35:13;;;;;;;4.43;2.27;;;20.80;1.00;;;;;;8332730;28;20221;-80
2022/05/16 18:39:17;;;;;;;4.07;2.30;;;20.60;1.00;;;;;;8319515;28;20211;-76
2022/05/16 18:51:56;;;;;;;5.40;2.07;;;20.10;1.00;;;;;;8340819;28;20300;-75
2022/05/16 18:55:57;;;;;;;2.90;1.53;;;19.90;1.00;;;;;;8330150;28;20216;-77
2022/05/16 18:59:58;;;;;;;4.17;1.80;;;19.80;1.00;;;;;;8314007;28;20189;-78
2022/05/16 19:04:00;;;;;;;8.83;2.93;;;19.70;1.00;;;;;;8332321;28;20324;-78
2022/05/16 19:08:02;;;;;;;4.80;3.00;;;19.60;1.00;;;;;;8326399;28;20200;-75
2022/05/16 19:12:04;;;;;;;5.30;3.27;;;19.40;1.00;;;;;;8332705;28;20217;-80
2022/05/16 19:16:05;;;;;;;7.00;2.73;;;19.30;1.00;;;;;;8336083;28;20229;-78
2022/05/16 19:20:11;;;;;;;3.03;1.83;;;19.20;1.00;;;;;;8328241;28;20202;-78
2022/05/16 19:24:12;;;;;;;5.20;2.10;;;19.10;1.00;;;;;;8344061;28;20182;-79
2022/05/16 19:32:34;;;;;;;48.30;24.03;;;19.00;1.00;;;;;;8344379;28;20244;-78
2022/05/16 19:36:34;;;;;;;26.63;15.70;;;18.90;1.00;;;;;;8330768;28;20217;-78
2022/05/16 19:40:36;;;;;;;7.30;4.53;;;18.80;1.00;;;;;;8338783;28;20213;-78
2022/05/16 19:44:40;;;;;;;7.50;5.20;;;18.70;1.00;;;;;;8334590;28;20190;-80
2022/05/16 19:48:42;;;;;;;8.23;4.77;;;18.60;1.00;;;;;;8341448;28;20209;-79
2022/05/16 19:52:43;;;;;;;6.33;3.77;;;18.60;1.00;;;;;;8324894;28;20197;-78
2022/05/16 19:56:48;;;;;;;5.80;2.93;;;18.50;1.00;;;;;;8347782;28;20222;-78
2022/05/16 20:00:49;;;;;;;7.80;3.30;;;18.40;1.00;;;;;;8332927;28;20185;-78
2022/05/16 20:04:50;;;;;;;6.23;2.20;;;18.40;1.00;;;;;;8348016;28;20190;-79
2022/05/16 20:08:56;;;;;;;5.77;2.63;;;18.30;3.40;;;;;;8330871;28;20202;-77
2022/05/16 20:12:57;;;;;;;5.87;2.73;;;18.30;1.40;;;;;;8337258;28;20278;-79
2022/05/16 20:16:58;;;;;;;5.10;2.10;;;18.30;1.00;;;;;;8329435;28;20221;-79
2022/05/16 20:20:59;;;;;;;3.63;2.20;;;18.30;5.20;;;;;;8329338;28;20268;-78
2022/05/16 20:29:20;;;;;;;5.70;2.53;;;18.10;9.10;;;;;;8344967;28;20232;-78
2022/05/16 20:33:23;;;;;;;4.90;2.30;;;18.10;16.60;;;;;;8325439;28;20191;-78
2022/05/16 20:37:24;;;;;;;5.40;2.20;;;18.00;24.90;;;;;;8319596;28;20241;-78
2022/05/16 20:41:25;;;;;;;5.93;2.00;;;17.90;29.80;;;;;;8330820;28;20216;-78
2022/05/16 20:45:28;;;;;;;4.43;2.47;;;17.90;38.10;;;;;;8322002;28;20190;-78
2022/05/16 20:49:28;;;;;;;3.70;2.20;;;17.80;45.60;;;;;;8321744;28;20198;-79
2022/05/16 20:53:30;;;;;;;5.00;2.37;;;17.70;59.40;;;;;;8338958;28;20194;-80
2022/05/16 20:57:30;;;;;;;6.13;3.53;;;17.60;72.90;;;;;;8331109;28;20189;-79
2022/05/16 21:01:31;;;;;;;6.07;3.13;;;17.50;94.00;;;;;;8328099;28;20191;-79
2022/05/16 21:05:33;;;;;;;4.50;2.37;;;17.40;99.90;;;;;;8342498;28;20183;-78
2022/05/16 21:09:34;;;;;;;2.73;2.20;;;17.30;99.90;;;;;;8326781;28;20198;-79
2022/05/16 21:13:34;;;;;;;2.80;1.83;;;17.20;99.90;;;;;;8326562;28;20196;-80
2022/05/16 21:17:35;;;;;;;2.37;1.90;;;17.10;99.90;;;;;;8328409;28;20285;-77
2022/05/16 21:21:36;;;;;;;4.40;1.90;;;17.00;99.90;;;;;;8321261;28;20194;-78
2022/05/16 21:25:37;;;;;;;3.00;1.90;;;16.90;99.90;;;;;;8326485;28;20255;-77
2022/05/16 21:29:38;;;;;;;4.27;2.03;;;16.70;99.90;;;;;;8332187;28;20209;-78
2022/05/16 21:33:39;;;;;;;3.07;1.63;;;16.70;99.90;;;;;;8347652;28;20231;-78
2022/05/16 21:37:41;;;;;;;1.97;1.60;;;16.70;99.90;;;;;;8333984;28;20185;-78
2022/05/16 21:41:41;;;;;;;3.90;2.10;;;16.60;99.90;;;;;;8330018;28;20206;-78
2022/05/16 21:45:42;;;;;;;3.07;1.70;;;16.50;99.90;;;;;;8322589;28;20196;-77
2022/05/16 21:49:43;;;;;;;2.00;1.30;;;16.30;1.00;;;;;;8333493;28;20194;-78
2022/05/16 21:53:44;;;;;;;3.13;1.90;;;16.20;1.00;;;;;;8325085;28;20192;-78
2022/05/16 21:57:46;;;;;;;3.40;1.90;;;16.10;1.00;;;;;;8325274;28;20187;-78
2022/05/16 22:01:48;;;;;;;4.50;2.20;;;16.00;1.00;;;;;;8320738;28;20197;-78
2022/05/16 22:05:52;;;;;;;2.77;2.10;;;16.00;1.00;;;;;;8329168;28;20186;-78
2022/05/16 22:09:53;;;;;;;3.50;2.23;;;15.90;1.00;;;;;;8339890;28;20208;-77
2022/05/16 22:13:54;;;;;;;3.50;1.83;;;15.90;1.00;;;;;;8323557;28;20209;-78
2022/05/16 22:17:55;;;;;;;2.60;1.80;;;15.90;1.00;;;;;;8322808;28;20190;-77
2022/05/16 22:21:56;;;;;;;2.93;2.13;;;15.90;1.00;;;;;;8321879;28;20513;-78
2022/05/16 22:25:56;;;;;;;3.00;1.87;;;15.80;1.00;;;;;;8315730;28;20190;-79
2022/05/16 22:29:57;;;;;;;2.17;1.70;;;15.70;1.00;;;;;;8341483;28;20270;-78
2022/05/16 22:33:58;;;;;;;1.70;1.40;;;15.60;1.00;;;;;;8326124;28;20208;-77
2022/05/16 22:37:59;;;;;;;3.33;1.90;;;15.60;11.90;;;;;;8323769;28;20208;-78
2022/05/16 22:42:00;;;;;;;7.70;3.03;;;15.50;92.60;;;;;;8321731;28;20206;-78
2022/05/16 22:46:01;;;;;;;11.27;7.43;;;15.40;99.90;;;;;;8325938;28;20194;-78
2022/05/16 22:50:03;;;;;;;6.67;4.47;;;15.30;75.30;;;;;;8319098;28;20185;-79